Nearby METAR Reports

 

KORH - Worcester, Massachusetts, USA
Distance from station: NW 4mi, 7km
Updated: Sat, 24-Jul-2021 10:54pm EDT
Clear
Clear
 Wind from SW
Wind: SW 10 mph , 17 km/h
Temperature: 66°F , 19°C
Dew Point: 59°F , 15°C
Humidity: 78%
Barometer: 30.06 inHg , 1017.9 hPa
Clouds: Clear
Visibility: 10 miles , 16 km
2021/07/25 02:54 KORH 250254Z AUTO 22009KT 10SM CLR 19/15 A3006 RMK AO2 SLP176 T01890150 58004
KBOS - Boston, Massachusetts, USA
Distance from station: ENE 42mi, 68km
Updated: Sat, 24-Jul-2021 10:54pm EDT
Mostly cloudy
Mostly cloudy
 Wind from SSW
Wind: SSW 9 mph , 15 km/h
Temperature: 72°F , 22°C
Dew Point: 61°F , 16°C
Humidity: 69%
Barometer: 30.05 inHg , 1017.6 hPa
Clouds: Mostly cloudy
Visibility: 10 miles , 16 km
Cloud details: Mostly cloudy 22000 ft
Mostly cloudy 25000 ft
2021/07/25 02:54 KBOS 250254Z 20008KT 10SM BKN220 BKN250 22/16 A3005 RMK AO2 SLP175 T02170156 58002
 
KCQX - Chatham, Massachusetts, USA
Distance from station: SE 102mi, 164km
Updated: Sat, 24-Jul-2021 10:52pm EDT
Clear
Clear
 Wind from calm
Wind: Calm
Temperature: 64°F , 18°C
Dew Point: 59°F , 15°C
Humidity: 83%
Barometer: 30.08 inHg , 1018.6 hPa
Clouds: Clear
Visibility: 10 miles , 16 km
2021/07/25 02:52 KCQX 250252Z AUTO 00000KT 10SM CLR 18/15 A3008 RMK AO2 SLP186 T01780150 56007
KMVY - Marthas Vineyard, Massachusetts, USA
Distance from station: SE 84mi, 135km
Updated: Sat, 24-Jul-2021 11:32pm EDT
Few Clouds
Few Clouds
 Wind from calm
Wind: Calm
Temperature: 61°F , 16°C
Dew Point: 57°F , 14°C
Humidity: 88%
Barometer: 30.06 inHg , 1017.9 hPa
Clouds: Few Clouds
Visibility: 10 miles , 16 km
Cloud details: Few Clouds 200 ft
2021/07/25 03:32 KMVY 250332Z AUTO 00000KT 10SM FEW002 16/14 A3006 RMK AO2 T01560139
 
KPVC - Provincetown, Massachusetts, USA
Distance from station: NNW 85mi, 136km
Updated: Sat, 24-Jul-2021 10:56pm EDT
Clear
Clear
 Wind from SSW
Wind: SSW 7 mph , 11 km/h
Temperature: 68°F , 20°C
Dew Point: 64°F , 18°C
Humidity: 88%
Barometer: 30.07 inHg , 1018.3 hPa
Clouds: Clear
Visibility: 10 miles , 16 km
2021/07/25 02:56 KPVC 250256Z AUTO 20006KT 10SM CLR 20/18 A3007 RMK AO2 SLP181 T02000178 56006
KAQW - Savoy, Massachusetts, USA
Distance from station: NNW 66mi, 106km
Updated: Sat, 24-Jul-2021 10:52pm EDT
Few Clouds
Few Clouds
 Wind from calm
Wind: Calm
Temperature: 66°F , 19°C
Dew Point: 59°F , 15°C
Humidity: 78%
Barometer: 30.00 inHg , 1015.9 hPa
Clouds: Few Clouds
Visibility: 10 miles , 16 km
Cloud details: Few Clouds 5500 ft
2021/07/25 02:52 KAQW 250252Z AUTO 00000KT 10SM FEW055 19/15 A3000 RMK AO2 SLP158 T01940150 58006
 
KIZG - Fryeburg, Maine, USA
Distance from station: NNE 133mi, 214km
Updated: Sat, 24-Jul-2021 10:54pm EDT
Clear
Clear
 Wind from calm
Wind: Calm
Temperature: 61°F , 16°C
Dew Point: 55°F , 13°C
Humidity: 83%
Barometer: 30.04 inHg , 1017.3 hPa
Clouds: Clear
Visibility: 10 miles , 16 km
2021/07/25 02:54 KIZG 250254Z AUTO 00000KT 10SM CLR 16/13 A3004 RMK AO2 SLP172 T01560128 56001
KMWN - Mt Washington, New Hampshire, USA
Distance from station: NNE 146mi, 234km
Updated: Sat, 24-Jul-2021 10:58pm EDT
Mostly cloudy
Mostly cloudy
 Wind from SSW
Wind: SSW 24 mph , 39 km/h
Temperature: 46°F , 8°C
Wind Chill: 38°F , 3°C
Dew Point: 45°F , 7°C
Humidity: 93%
Clouds: Mostly cloudy
Visibility: 60 miles , 96 km
Cloud details: Mostly cloudy 16000 ft
Mostly cloudy 18000 ft
2021/07/25 02:58 KMWN 250258Z 20021KT 60SM BKN160 BKN180 08/07 RMK
 
KBML - Berlin, New Hampshire, USA
Distance from station: NNE 160mi, 257km
Updated: Sat, 24-Jul-2021 10:52pm EDT
Clear
Clear
 Wind from calm
Wind: Calm
Temperature: 57°F , 14°C
Dew Point: 54°F , 12°C
Humidity: 88%
Barometer: 30.02 inHg , 1016.6 hPa
Clouds: Clear
Visibility: 10 miles , 16 km
2021/07/25 02:52 KBML 250252Z AUTO 00000KT 10SM CLR 14/12 A3002 RMK AO2 SLP166 T01440122 58003